sensor_id;sensor_type;location;lat;lon;timestamp;pressure;altitude;pressure_sealevel;temperature;humidity
62712;BME280;48772;55.586;37.730;2023-01-25T00:02:03;100887.66;;;-1.02;100.00
62712;BME280;48772;55.586;37.730;2023-01-25T00:04:29;100875.50;;;-1.06;100.00
62712;BME280;48772;55.586;37.730;2023-01-25T00:06:55;100908.34;;;-0.85;100.00
62712;BME280;48772;55.586;37.730;2023-01-25T00:09:22;100892.69;;;-0.88;100.00
62712;BME280;48772;55.586;37.730;2023-01-25T00:11:48;100879.72;;;-0.96;100.00
62712;BME280;48772;55.586;37.730;2023-01-25T00:14:15;100843.31;;;-1.11;100.00
62712;BME280;48772;55.586;37.730;2023-01-25T00:16:41;100884.81;;;-0.87;100.00
62712;BME280;48772;55.586;37.730;2023-01-25T00:19:08;100886.56;;;-0.84;100.00
62712;BME280;48772;55.586;37.730;2023-01-25T00:21:35;100837.09;;;-1.02;100.00
62712;BME280;48772;55.586;37.730;2023-01-25T00:24:04;100780.88;;;-1.36;100.00
62712;BME280;48772;55.586;37.730;2023-01-25T00:26:33;100759.22;;;-1.47;100.00
62712;BME280;48772;55.586;37.730;2023-01-25T00:28:59;100858.63;;;-0.85;100.00
62712;BME280;48772;55.586;37.730;2023-01-25T00:39:31;100858.56;;;-0.81;100.00
62712;BME280;48772;55.586;37.730;2023-01-25T00:41:57;100868.88;;;-0.72;100.00
62712;BME280;48772;55.586;37.730;2023-01-25T00:44:23;100873.25;;;-0.72;100.00
62712;BME280;48772;55.586;37.730;2023-01-25T00:46:49;100856.69;;;-0.73;100.00
62712;BME280;48772;55.586;37.730;2023-01-25T00:49:23;100861.00;;;-0.72;100.00
62712;BME280;48772;55.586;37.730;2023-01-25T00:51:51;100823.00;;;-0.95;100.00
62712;BME280;48772;55.586;37.730;2023-01-25T00:54:18;100853.13;;;-0.70;100.00
62712;BME280;48772;55.586;37.730;2023-01-25T00:56:45;100792.56;;;-1.01;100.00
62712;BME280;48772;55.586;37.730;2023-01-25T00:59:12;100833.06;;;-0.70;100.00
62712;BME280;48772;55.586;37.730;2023-01-25T01:01:42;100819.25;;;-0.79;100.00
62712;BME280;48772;55.586;37.730;2023-01-25T01:04:09;100835.59;;;-0.64;100.00
62712;BME280;48772;55.586;37.730;2023-01-25T01:06:37;100719.84;;;-1.35;100.00
62712;BME280;48772;55.586;37.730;2023-01-25T01:09:05;100705.03;;;-1.39;100.00
62712;BME280;48772;55.586;37.730;2023-01-25T01:11:32;100836.38;;;-0.59;100.00
62712;BME280;48772;55.586;37.730;2023-01-25T01:13:58;100807.81;;;-0.74;100.00
62712;BME280;48772;55.586;37.730;2023-01-25T01:16:24;100825.97;;;-0.63;100.00
62712;BME280;48772;55.586;37.730;2023-01-25T01:18:51;100805.25;;;-0.77;100.00
62712;BME280;48772;55.586;37.730;2023-01-25T01:21:17;100826.88;;;-0.64;100.00
62712;BME280;48772;55.586;37.730;2023-01-25T01:23:43;100799.13;;;-0.77;100.00
62712;BME280;48772;55.586;37.730;2023-01-25T01:26:15;100801.66;;;-0.71;100.00
62712;BME280;48772;55.586;37.730;2023-01-25T01:28:42;100773.16;;;-0.89;100.00
62712;BME280;48772;55.586;37.730;2023-01-25T01:31:11;100820.69;;;-0.60;100.00
62712;BME280;48772;55.586;37.730;2023-01-25T01:33:42;100812.06;;;-0.65;100.00
62712;BME280;48772;55.586;37.730;2023-01-25T01:36:16;100808.44;;;-0.58;100.00
62712;BME280;48772;55.586;37.730;2023-01-25T01:38:42;100771.22;;;-0.77;100.00
62712;BME280;48772;55.586;37.730;2023-01-25T01:41:09;100812.06;;;-0.65;100.00
62712;BME280;48772;55.586;37.730;2023-01-25T01:43:38;100800.00;;;-0.75;100.00
62712;BME280;48772;55.586;37.730;2023-01-25T01:46:18;100793.91;;;-0.77;100.00
62712;BME280;48772;55.586;37.730;2023-01-25T01:51:34;100791.47;;;-0.89;100.00
62712;BME280;48772;55.586;37.730;2023-01-25T01:54:15;100797.63;;;-0.92;100.00
62712;BME280;48772;55.586;37.730;2023-01-25T01:57:06;100789.03;;;-0.98;100.00
62712;BME280;48772;55.586;37.730;2023-01-25T02:02:10;100791.81;;;-1.10;100.00
62712;BME280;48772;55.586;37.730;2023-01-25T02:04:37;100803.91;;;-1.03;100.00
62712;BME280;48772;55.586;37.730;2023-01-25T02:07:20;100788.31;;;-1.08;100.00
62712;BME280;48772;55.586;37.730;2023-01-25T02:09:49;100782.22;;;-1.10;100.00
62712;BME280;48772;55.586;37.730;2023-01-25T02:12:16;100701.88;;;-1.58;100.00
62712;BME280;48772;55.586;37.730;2023-01-25T02:14:47;100773.56;;;-1.13;100.00
62712;BME280;48772;55.586;37.730;2023-01-25T02:17:23;100790.06;;;-1.08;100.00
62712;BME280;48772;55.586;37.730;2023-01-25T02:20:06;100783.13;;;-1.12;100.00
62712;BME280;48772;55.586;37.730;2023-01-25T02:22:55;100761.53;;;-1.25;100.00
62712;BME280;48772;55.586;37.730;2023-01-25T02:25:24;100791.94;;;-1.16;100.00
62712;BME280;48772;55.586;37.730;2023-01-25T02:27:56;100765.94;;;-1.28;100.00
62712;BME280;48772;55.586;37.730;2023-01-25T02:30:25;100748.63;;;-1.35;100.00
62712;BME280;48772;55.586;37.730;2023-01-25T02:32:51;100777.19;;;-1.23;100.00
62712;BME280;48772;55.586;37.730;2023-01-25T02:35:22;100798.81;;;-1.11;100.00
62712;BME280;48772;55.586;37.730;2023-01-25T02:37:49;100775.47;;;-1.23;100.00
62712;BME280;48772;55.586;37.730;2023-01-25T02:40:17;100800.59;;;-1.14;100.00
62712;BME280;48772;55.586;37.730;2023-01-25T02:42:44;100790.28;;;-1.23;100.00
62712;BME280;48772;55.586;37.730;2023-01-25T02:45:15;100797.13;;;-1.13;100.00
62712;BME280;48772;55.586;37.730;2023-01-25T02:47:42;100805.78;;;-1.11;100.00
62712;BME280;48772;55.586;37.730;2023-01-25T02:50:09;100752.13;;;-1.39;100.00
62712;BME280;48772;55.586;37.730;2023-01-25T02:52:39;100755.59;;;-1.37;100.00
62712;BME280;48772;55.586;37.730;2023-01-25T02:55:07;100797.00;;;-1.07;100.00
62712;BME280;48772;55.586;37.730;2023-01-25T02:57:33;100804.84;;;-1.07;100.00
62712;BME280;48772;55.586;37.730;2023-01-25T02:59:59;100750.53;;;-1.46;100.00
62712;BME280;48772;55.586;37.730;2023-01-25T03:02:25;100786.63;;;-1.12;100.00
62712;BME280;48772;55.586;37.730;2023-01-25T03:04:51;100777.94;;;-1.14;100.00
62712;BME280;48772;55.586;37.730;2023-01-25T03:07:16;100804.81;;;-1.04;100.00
62712;BME280;48772;55.586;37.730;2023-01-25T03:09:43;100738.28;;;-1.44;100.00
62712;BME280;48772;55.586;37.730;2023-01-25T03:12:09;100769.34;;;-1.22;100.00
62712;BME280;48772;55.586;37.730;2023-01-25T03:14:36;100756.38;;;-1.32;100.00
62712;BME280;48772;55.586;37.730;2023-01-25T03:17:03;100794.31;;;-1.03;100.00
62712;BME280;48772;55.586;37.730;2023-01-25T03:19:29;100783.91;;;-1.06;100.00
62712;BME280;48772;55.586;37.730;2023-01-25T03:21:55;100794.25;;;-0.98;100.00
62712;BME280;48772;55.586;37.730;2023-01-25T03:24:21;100778.72;;;-1.09;100.00
62712;BME280;48772;55.586;37.730;2023-01-25T03:26:47;100790.84;;;-1.03;100.00
62712;BME280;48772;55.586;37.730;2023-01-25T03:29:43;100786.38;;;-0.97;100.00
62712;BME280;48772;55.586;37.730;2023-01-25T03:32:14;100778.47;;;-0.94;100.00
62712;BME280;48772;55.586;37.730;2023-01-25T03:34:40;100774.09;;;-0.93;100.00
62712;BME280;48772;55.586;37.730;2023-01-25T03:37:06;100766.38;;;-1.01;100.00
62712;BME280;48772;55.586;37.730;2023-01-25T03:39:34;100769.00;;;-1.01;100.00
62712;BME280;48772;55.586;37.730;2023-01-25T03:41:59;100768.09;;;-0.98;100.00
62712;BME280;48772;55.586;37.730;2023-01-25T03:44:25;100767.22;;;-1.00;100.00
62712;BME280;48772;55.586;37.730;2023-01-25T03:46:51;100757.75;;;-1.07;100.00
62712;BME280;48772;55.586;37.730;2023-01-25T03:49:17;100778.50;;;-0.95;100.00
62712;BME280;48772;55.586;37.730;2023-01-25T03:51:44;100737.03;;;-1.21;100.00
62712;BME280;48772;55.586;37.730;2023-01-25T03:54:10;100765.56;;;-1.04;100.00
62712;BME280;48772;55.586;37.730;2023-01-25T03:56:37;100692.22;;;-1.54;100.00
62712;BME280;48772;55.586;37.730;2023-01-25T03:59:11;100760.53;;;-1.16;100.00
62712;BME280;48772;55.586;37.730;2023-01-25T04:01:37;100799.50;;;-0.98;100.00
62712;BME280;48772;55.586;37.730;2023-01-25T04:04:04;100670.72;;;-1.73;100.00
62712;BME280;48772;55.586;37.730;2023-01-25T04:06:32;100747.75;;;-1.36;100.00
62712;BME280;48772;55.586;37.730;2023-01-25T04:08:58;100679.38;;;-1.69;100.00
62712;BME280;48772;55.586;37.730;2023-01-25T04:11:25;100681.88;;;-1.60;100.00
62712;BME280;48772;55.586;37.730;2023-01-25T04:13:51;100685.31;;;-1.60;100.00
62712;BME280;48772;55.586;37.730;2023-01-25T04:16:19;100688.75;;;-1.55;100.00
62712;BME280;48772;55.586;37.730;2023-01-25T04:19:04;100768.19;;;-1.06;100.00
62712;BME280;48772;55.586;37.730;2023-01-25T04:21:30;100764.78;;;-1.11;100.00
62712;BME280;48772;55.586;37.730;2023-01-25T04:23:56;100754.34;;;-1.11;100.00
62712;BME280;48772;55.586;37.730;2023-01-25T04:26:22;100770.72;;;-1.00;100.00
62712;BME280;48772;55.586;37.730;2023-01-25T04:28:56;100735.13;;;-1.11;100.00
62712;BME280;48772;55.586;37.730;2023-01-25T04:31:22;100712.59;;;-1.21;100.00
62712;BME280;48772;55.586;37.730;2023-01-25T04:33:48;100741.13;;;-1.05;100.00
62712;BME280;48772;55.586;37.730;2023-01-25T04:36:16;100754.97;;;-0.97;100.00
62712;BME280;48772;55.586;37.730;2023-01-25T04:38:43;100759.34;;;-0.97;100.00
62712;BME280;48772;55.586;37.730;2023-01-25T04:41:09;100764.59;;;-0.99;100.00
62712;BME280;48772;55.586;37.730;2023-01-25T04:43:35;100754.13;;;-0.99;100.00
62712;BME280;48772;55.586;37.730;2023-01-25T04:46:08;100761.06;;;-0.96;100.00
62712;BME280;48772;55.586;37.730;2023-01-25T04:48:37;100787.16;;;-0.90;100.00
62712;BME280;48772;55.586;37.730;2023-01-25T04:51:35;100674.84;;;-1.58;100.00
62712;BME280;48772;55.586;37.730;2023-01-25T04:54:02;100651.47;;;-1.67;100.00
62712;BME280;48772;55.586;37.730;2023-01-25T04:56:28;100777.66;;;-0.97;100.00
62712;BME280;48772;55.586;37.730;2023-01-25T04:58:57;100772.44;;;-0.97;100.00
62712;BME280;48772;55.586;37.730;2023-01-25T05:01:22;100748.38;;;-1.20;100.00
62712;BME280;48772;55.586;37.730;2023-01-25T05:03:50;100791.56;;;-0.94;100.00
62712;BME280;48772;55.586;37.730;2023-01-25T05:06:27;100779.41;;;-0.98;100.00
62712;BME280;48772;55.586;37.730;2023-01-25T05:08:53;100779.38;;;-0.96;100.00
62712;BME280;48772;55.586;37.730;2023-01-25T05:11:19;100767.22;;;-1.00;100.00
62712;BME280;48772;55.586;37.730;2023-01-25T05:13:53;100752.59;;;-1.12;100.00
62712;BME280;48772;55.586;37.730;2023-01-25T05:16:26;100731.00;;;-1.24;100.00
62712;BME280;48772;55.586;37.730;2023-01-25T05:18:54;100767.22;;;-1.00;100.00
62712;BME280;48772;55.586;37.730;2023-01-25T05:21:24;100790.59;;;-0.88;100.00
62712;BME280;48772;55.586;37.730;2023-01-25T05:24:08;100792.31;;;-0.86;100.00
62712;BME280;48772;55.586;37.730;2023-01-25T05:26:34;100789.78;;;-0.90;100.00
62712;BME280;48772;55.586;37.730;2023-01-25T05:29:19;100770.72;;;-0.98;100.00
62712;BME280;48772;55.586;37.730;2023-01-25T05:31:52;100789.72;;;-0.87;100.00
62712;BME280;48772;55.586;37.730;2023-01-25T05:34:18;100791.47;;;-0.89;100.00
62712;BME280;48772;55.586;37.730;2023-01-25T05:36:43;100772.44;;;-0.97;100.00
62712;BME280;48772;55.586;37.730;2023-01-25T05:39:10;100743.00;;;-1.13;100.00
62712;BME280;48772;55.586;37.730;2023-01-25T05:41:36;100785.44;;;-0.93;100.00
62712;BME280;48772;55.586;37.730;2023-01-25T05:44:03;100735.34;;;-1.23;100.00
62712;BME280;48772;55.586;37.730;2023-01-25T05:46:30;100760.41;;;-1.10;100.00
62712;BME280;48772;55.586;37.730;2023-01-25T05:48:56;100746.56;;;-1.17;100.00
62712;BME280;48772;55.586;37.730;2023-01-25T05:51:25;100715.44;;;-1.33;100.00
62712;BME280;48772;55.586;37.730;2023-01-25T05:53:54;100787.91;;;-0.84;100.00
62712;BME280;48772;55.586;37.730;2023-01-25T05:56:21;100768.81;;;-0.90;100.00
62712;BME280;48772;55.586;37.730;2023-01-25T05:58:57;100786.13;;;-0.80;100.00
62712;BME280;48772;55.586;37.730;2023-01-25T06:01:23;100786.03;;;-0.77;100.00
62712;BME280;48772;55.586;37.730;2023-01-25T06:03:55;100738.41;;;-0.99;100.00
62712;BME280;48772;55.586;37.730;2023-01-25T06:06:23;100767.78;;;-0.80;100.00
62712;BME280;48772;55.586;37.730;2023-01-25T06:08:50;100754.06;;;-0.94;100.00
62712;BME280;48772;55.586;37.730;2023-01-25T06:11:20;100765.03;;;-0.74;100.00
62712;BME280;48772;55.586;37.730;2023-01-25T06:13:49;100643.22;;;-1.43;100.00
62712;BME280;48772;55.586;37.730;2023-01-25T06:16:17;100652.72;;;-1.39;100.00
62712;BME280;48772;55.586;37.730;2023-01-25T06:19:03;100781.84;;;-0.86;100.00
62712;BME280;48772;55.586;37.730;2023-01-25T06:21:41;100787.94;;;-0.85;100.00
62712;BME280;48772;55.586;37.730;2023-01-25T06:24:07;100729.91;;;-1.13;100.00
62712;BME280;48772;55.586;37.730;2023-01-25T06:26:33;100785.91;;;-0.68;100.00
62712;BME280;48772;55.586;37.730;2023-01-25T06:28:58;100761.69;;;-0.82;100.00
62712;BME280;48772;55.586;37.730;2023-01-25T06:31:24;100771.25;;;-0.80;100.00
62712;BME280;48772;55.586;37.730;2023-01-25T06:33:51;100773.81;;;-0.75;100.00
62712;BME280;48772;55.586;37.730;2023-01-25T06:36:20;100748.69;;;-0.87;100.00
62712;BME280;48772;55.586;37.730;2023-01-25T06:38:48;100771.34;;;-0.84;100.00
62712;BME280;48772;55.586;37.730;2023-01-25T06:41:15;100731.50;;;-1.01;100.00
62712;BME280;48772;55.586;37.730;2023-01-25T06:43:41;100775.66;;;-0.80;100.00
62712;BME280;48772;55.586;37.730;2023-01-25T06:46:12;100773.84;;;-0.78;100.00
62712;BME280;48772;55.586;37.730;2023-01-25T06:48:39;100733.22;;;-1.02;100.00
62712;BME280;48772;55.586;37.730;2023-01-25T06:51:09;100779.22;;;-0.84;100.00
62712;BME280;48772;55.586;37.730;2023-01-25T06:53:40;100730.03;;;-1.17;100.00
62712;BME280;48772;55.586;37.730;2023-01-25T06:56:11;100746.50;;;-1.12;100.00
62712;BME280;48772;55.586;37.730;2023-01-25T06:58:38;100682.66;;;-1.55;100.00
62712;BME280;48772;55.586;37.730;2023-01-25T07:01:08;100790.78;;;-1.00;100.00
62712;BME280;48772;55.586;37.730;2023-01-25T07:03:37;100753.56;;;-1.17;100.00
62712;BME280;48772;55.586;37.730;2023-01-25T07:06:05;100784.66;;;-0.99;100.00
62712;BME280;48772;55.586;37.730;2023-01-25T07:08:32;100780.25;;;-0.96;100.00
62712;BME280;48772;55.586;37.730;2023-01-25T07:11:03;100748.34;;;-1.17;100.00
62712;BME280;48772;55.586;37.730;2023-01-25T07:13:30;100761.31;;;-1.11;100.00
62712;BME280;48772;55.586;37.730;2023-01-25T07:16:05;100772.66;;;-1.12;100.00
62712;BME280;48772;55.586;37.730;2023-01-25T07:18:32;100795.03;;;-0.93;100.00
62712;BME280;48772;55.586;37.730;2023-01-25T07:21:07;100747.47;;;-1.18;100.00
62712;BME280;48772;55.586;37.730;2023-01-25T07:23:33;100776.00;;;-1.03;100.00
62712;BME280;48772;55.586;37.730;2023-01-25T07:26:04;100790.81;;;-1.02;100.00
62712;BME280;48772;55.586;37.730;2023-01-25T07:28:31;100771.63;;;-1.01;100.00
62712;BME280;48772;55.586;37.730;2023-01-25T07:31:07;100760.31;;;-1.04;100.00
62712;BME280;48772;55.586;37.730;2023-01-25T07:33:33;100793.19;;;-0.87;100.00
62712;BME280;48772;55.586;37.730;2023-01-25T07:36:05;100774.84;;;-0.87;100.00
62712;BME280;48772;55.586;37.730;2023-01-25T07:38:32;100766.28;;;-0.96;100.00
62712;BME280;48772;55.586;37.730;2023-01-25T07:40:59;100782.56;;;-0.76;100.00
62712;BME280;48772;55.586;37.730;2023-01-25T07:43:25;100788.03;;;-0.91;100.00
62712;BME280;48772;55.586;37.730;2023-01-25T07:45:52;100785.41;;;-0.90;100.00
62712;BME280;48772;55.586;37.730;2023-01-25T07:48:19;100774.97;;;-0.91;100.00
62712;BME280;48772;55.586;37.730;2023-01-25T07:50:45;100786.09;;;-0.79;100.00
62712;BME280;48772;55.586;37.730;2023-01-25T07:53:12;100767.19;;;-0.97;100.00
62712;BME280;48772;55.586;37.730;2023-01-25T07:55:38;100786.97;;;-0.81;100.00
62712;BME280;48772;55.586;37.730;2023-01-25T07:58:04;100773.00;;;-0.79;100.00
62712;BME280;48772;55.586;37.730;2023-01-25T08:00:30;100777.31;;;-0.76;100.00
62712;BME280;48772;55.586;37.730;2023-01-25T08:02:56;100744.38;;;-0.91;100.00
62712;BME280;48772;55.586;37.730;2023-01-25T08:05:22;100779.78;;;-0.67;100.00
62712;BME280;48772;55.586;37.730;2023-01-25T08:07:49;100745.06;;;-0.80;100.00
62712;BME280;48772;55.586;37.730;2023-01-25T08:10:15;100743.41;;;-0.85;100.00
62712;BME280;48772;55.586;37.730;2023-01-25T08:12:45;100722.66;;;-0.94;100.00
62712;BME280;48772;55.586;37.730;2023-01-25T08:15:14;100769.28;;;-0.66;100.00
62712;BME280;48772;55.586;37.730;2023-01-25T08:17:40;100697.47;;;-1.01;100.00
62712;BME280;48772;55.586;37.730;2023-01-25T08:20:07;100764.00;;;-0.64;100.00
62712;BME280;48772;55.586;37.730;2023-01-25T08:22:33;100751.78;;;-0.64;100.00
62712;BME280;48772;55.586;37.730;2023-01-25T08:24:59;100747.44;;;-0.66;100.00
62712;BME280;48772;55.586;37.730;2023-01-25T08:27:27;100766.53;;;-0.58;100.00
62712;BME280;48772;55.586;37.730;2023-01-25T08:29:53;100715.47;;;-0.83;100.00
62712;BME280;48772;55.586;37.730;2023-01-25T08:32:20;100763.00;;;-0.57;100.00
62712;BME280;48772;55.586;37.730;2023-01-25T08:34:46;100749.19;;;-0.65;100.00
62712;BME280;48772;55.586;37.730;2023-01-25T08:37:13;100758.72;;;-0.61;100.00
62712;BME280;48772;55.586;37.730;2023-01-25T08:39:43;100770.94;;;-0.62;100.00
62712;BME280;48772;55.586;37.730;2023-01-25T08:42:09;100678.41;;;-1.09;100.00
62712;BME280;48772;55.586;37.730;2023-01-25T08:44:35;100751.09;;;-0.73;100.00
62712;BME280;48772;55.586;37.730;2023-01-25T08:47:01;100732.97;;;-0.87;100.00
62712;BME280;48772;55.586;37.730;2023-01-25T08:49:27;100746.97;;;-0.88;100.00
62712;BME280;48772;55.586;37.730;2023-01-25T08:51:53;100740.81;;;-0.85;100.00
62712;BME280;48772;55.586;37.730;2023-01-25T08:54:18;100738.91;;;-0.77;100.00
62712;BME280;48772;55.586;37.730;2023-01-25T08:56:44;100741.47;;;-0.73;100.00
62712;BME280;48772;55.586;37.730;2023-01-25T08:59:12;100744.06;;;-0.73;100.00
62712;BME280;48772;55.586;37.730;2023-01-25T09:01:38;100753.47;;;-0.61;100.00
62712;BME280;48772;55.586;37.730;2023-01-25T09:04:04;100751.78;;;-0.64;100.00
62712;BME280;48772;55.586;37.730;2023-01-25T09:06:31;100743.84;;;-0.61;100.00
62712;BME280;48772;55.586;37.730;2023-01-25T09:08:58;100694.56;;;-0.85;100.00
62712;BME280;48772;55.586;37.730;2023-01-25T09:11:24;100706.44;;;-0.67;100.00
62712;BME280;48772;55.586;37.730;2023-01-25T09:13:50;100701.38;;;-0.76;100.00
62712;BME280;48772;55.586;37.730;2023-01-25T09:16:19;100709.72;;;-0.56;100.00
62712;BME280;48772;55.586;37.730;2023-01-25T09:18:53;100669.13;;;-0.80;100.00
62712;BME280;48772;55.586;37.730;2023-01-25T09:21:20;100709.94;;;-0.67;100.00
62712;BME280;48772;55.586;37.730;2023-01-25T09:23:47;100663.19;;;-0.88;100.00
62712;BME280;48772;55.586;37.730;2023-01-25T09:26:15;100695.13;;;-0.68;100.00
62712;BME280;48772;55.586;37.730;2023-01-25T09:28:44;100590.03;;;-1.42;100.00
62712;BME280;48772;55.586;37.730;2023-01-25T09:31:10;100709.97;;;-0.68;100.00
62712;BME280;48772;55.586;37.730;2023-01-25T09:33:57;100707.41;;;-0.73;100.00
62712;BME280;48772;55.586;37.730;2023-01-25T09:36:23;100687.03;;;-1.03;100.00
62712;BME280;48772;55.586;37.730;2023-01-25T09:38:51;100700.81;;;-0.93;100.00
62712;BME280;48772;55.586;37.730;2023-01-25T09:41:40;100703.34;;;-0.89;100.00
62712;BME280;48772;55.586;37.730;2023-01-25T09:47:09;100673.97;;;-1.04;100.00
62712;BME280;48772;55.586;37.730;2023-01-25T09:55:14;100683.34;;;-0.91;100.00
62712;BME280;48772;55.586;37.730;2023-01-25T09:57:43;100670.31;;;-0.96;100.00
62712;BME280;48772;55.586;37.730;2023-01-25T10:00:23;100670.31;;;-0.96;100.00
62712;BME280;48772;55.586;37.730;2023-01-25T10:02:53;100655.50;;;-0.97;100.00
62712;BME280;48772;55.586;37.730;2023-01-25T10:05:27;100663.25;;;-0.91;100.00
62712;BME280;48772;55.586;37.730;2023-01-25T10:10:41;100605.25;;;-1.15;100.00
62712;BME280;48772;55.586;37.730;2023-01-25T10:13:13;100654.72;;;-1.03;100.00
62712;BME280;48772;55.586;37.730;2023-01-25T10:15:47;100638.97;;;-1.00;100.00
62712;BME280;48772;55.586;37.730;2023-01-25T10:18:26;100629.50;;;-1.06;100.00
62712;BME280;48772;55.586;37.730;2023-01-25T10:20:59;100628.41;;;-0.94;100.00
62712;BME280;48772;55.586;37.730;2023-01-25T10:26:33;100591.84;;;-0.99;100.00
62712;BME280;48772;55.586;37.730;2023-01-25T10:29:11;100602.25;;;-0.94;100.00
62712;BME280;48772;55.586;37.730;2023-01-25T10:31:46;100611.66;;;-0.84;100.00
62712;BME280;48772;55.586;37.730;2023-01-25T10:34:25;100588.97;;;-0.85;100.00
62712;BME280;48772;55.586;37.730;2023-01-25T10:37:02;100562.06;;;-0.93;100.00
62712;BME280;48772;55.586;37.730;2023-01-25T10:39:31;100616.66;;;-0.74;100.00
62712;BME280;48772;55.586;37.730;2023-01-25T10:42:05;100570.34;;;-1.16;100.00
62712;BME280;48772;55.586;37.730;2023-01-25T10:44:34;100625.75;;;-0.91;100.00
62712;BME280;48772;55.586;37.730;2023-01-25T10:47:21;100571.38;;;-1.23;100.00
62712;BME280;48772;55.586;37.730;2023-01-25T10:49:53;100629.19;;;-0.89;100.00
62712;BME280;48772;55.586;37.730;2023-01-25T10:52:24;100637.16;;;-0.95;100.00
62712;BME280;48772;55.586;37.730;2023-01-25T10:55:20;100621.47;;;-0.95;100.00
62712;BME280;48772;55.586;37.730;2023-01-25T10:57:56;100577.19;;;-1.09;100.00
62712;BME280;48772;55.586;37.730;2023-01-25T11:00:36;100592.53;;;-0.89;100.00
62712;BME280;48772;55.586;37.730;2023-01-25T11:03:03;100577.56;;;-0.83;100.00
62712;BME280;48772;55.586;37.730;2023-01-25T11:10:46;100556.13;;;-1.01;100.00
62712;BME280;48772;55.586;37.730;2023-01-25T11:15:44;100568.88;;;-0.85;100.00
62712;BME280;48772;55.586;37.730;2023-01-25T11:18:22;100593.09;;;-0.74;100.00
62712;BME280;48772;55.586;37.730;2023-01-25T11:21:12;100549.94;;;-0.97;100.00
62712;BME280;48772;55.586;37.730;2023-01-25T11:23:41;100573.94;;;-0.76;100.00
62712;BME280;48772;55.586;37.730;2023-01-25T11:26:13;100562.66;;;-0.79;100.00
62712;BME280;48772;55.586;37.730;2023-01-25T11:28:39;100556.50;;;-0.77;100.00
62712;BME280;48772;55.586;37.730;2023-01-25T11:31:22;100570.19;;;-0.63;100.00
62712;BME280;48772;55.586;37.730;2023-01-25T11:33:48;100562.47;;;-0.70;100.00
62712;BME280;48772;55.586;37.730;2023-01-25T11:39:37;100553.75;;;-0.69;100.00
62712;BME280;48772;55.586;37.730;2023-01-25T11:42:18;100558.06;;;-0.67;100.00
62712;BME280;48772;55.586;37.730;2023-01-25T11:52:39;100489.53;;;-0.88;100.00
62712;BME280;48772;55.586;37.730;2023-01-25T11:55:33;100536.09;;;-0.61;100.00
62712;BME280;48772;55.586;37.730;2023-01-25T12:05:57;100452.88;;;-1.28;100.00
62712;BME280;48772;55.586;37.730;2023-01-25T12:14:10;100502.13;;;-1.05;100.00
62712;BME280;48772;55.586;37.730;2023-01-25T12:22:39;100541.63;;;-0.73;100.00
62712;BME280;48772;55.586;37.730;2023-01-25T12:28:09;100542.50;;;-0.76;100.00
62712;BME280;48772;55.586;37.730;2023-01-25T12:33:39;100542.72;;;-0.85;100.00
62712;BME280;48772;55.586;37.730;2023-01-25T12:39:05;100532.41;;;-0.94;100.00
62712;BME280;48772;55.586;37.730;2023-01-25T12:44:24;100519.59;;;-1.07;100.00
62712;BME280;48772;55.586;37.730;2023-01-25T12:52:34;100513.59;;;-1.12;100.00
62712;BME280;48772;55.586;37.730;2023-01-25T12:55:11;100508.44;;;-1.15;100.00
62712;BME280;48772;55.586;37.730;2023-01-25T13:05:51;100507.38;;;-1.05;100.00
62712;BME280;48772;55.586;37.730;2023-01-25T13:08:42;100512.59;;;-1.05;100.00
62712;BME280;48772;55.586;37.730;2023-01-25T13:11:37;100506.53;;;-1.09;100.00
62712;BME280;48772;55.586;37.730;2023-01-25T13:16:52;100493.34;;;-1.03;100.00
62712;BME280;48772;55.586;37.730;2023-01-25T13:19:38;100396.75;;;-1.56;100.00
62712;BME280;48772;55.586;37.730;2023-01-25T13:22:08;100488.19;;;-1.07;100.00
62712;BME280;48772;55.586;37.730;2023-01-25T13:25:37;100506.28;;;-0.95;100.00
62712;BME280;48772;55.586;37.730;2023-01-25T13:27:44;100484.53;;;-0.99;100.00
62712;BME280;48772;55.586;37.730;2023-01-25T13:30:31;100482.75;;;-0.95;100.00
62712;BME280;48772;55.586;37.730;2023-01-25T13:33:04;100480.34;;;-1.07;100.00
62712;BME280;48772;55.586;37.730;2023-01-25T13:38:24;100464.88;;;-1.18;100.00
62712;BME280;48772;55.586;37.730;2023-01-25T13:41:08;100417.44;;;-1.44;100.00
62712;BME280;48772;55.586;37.730;2023-01-25T13:43:40;100450.09;;;-1.19;100.00
62712;BME280;48772;55.586;37.730;2023-01-25T13:46:07;100476.94;;;-1.11;100.00
62712;BME280;48772;55.586;37.730;2023-01-25T13:48:35;100461.34;;;-1.17;100.00
62712;BME280;48772;55.586;37.730;2023-01-25T13:51:11;100445.84;;;-1.24;100.00
62712;BME280;48772;55.586;37.730;2023-01-25T13:53:39;100446.78;;;-1.28;100.00
62712;BME280;48772;55.586;37.730;2023-01-25T13:56:24;100457.75;;;-1.11;100.00
62712;BME280;48772;55.586;37.730;2023-01-25T13:58:50;100353.81;;;-1.87;100.00
62712;BME280;48772;55.586;37.730;2023-01-25T14:01:18;100415.69;;;-1.43;100.00
62712;BME280;48772;55.586;37.730;2023-01-25T14:03:49;100446.53;;;-1.16;100.00
62712;BME280;48772;55.586;37.730;2023-01-25T14:06:28;100421.66;;;-1.37;100.00
62712;BME280;48772;55.586;37.730;2023-01-25T14:08:58;100396.72;;;-1.54;100.00
62712;BME280;48772;55.586;37.730;2023-01-25T14:11:28;100398.53;;;-1.56;100.00
62712;BME280;48772;55.586;37.730;2023-01-25T14:16:28;100305.56;;;-2.13;100.00
62712;BME280;48772;55.586;37.730;2023-01-25T14:19:07;100426.97;;;-1.40;100.00
62712;BME280;48772;55.586;37.730;2023-01-25T14:21:46;100438.31;;;-1.41;100.00
62712;BME280;48772;55.586;37.730;2023-01-25T14:24:16;100390.78;;;-1.62;100.00
62712;BME280;48772;55.586;37.730;2023-01-25T14:26:44;100364.25;;;-1.85;100.00